createdAt,value
2019-04-12T00:15:52.467Z,10.16
2019-04-12T00:30:52.053Z,10.09
2019-04-12T00:45:56.795Z,10.16
2019-04-12T01:00:58.909Z,10.33
2019-04-12T01:15:52.150Z,10.48
2019-04-12T01:30:51.491Z,10.61
2019-04-12T01:45:51.363Z,10.62
2019-04-12T02:00:57.308Z,10.55
2019-04-12T02:15:50.800Z,10.47
2019-04-12T02:30:52.584Z,10.48
2019-04-12T02:45:54.706Z,10.03
2019-04-12T03:00:59.848Z,10.06
2019-04-12T03:15:51.055Z,9.98
2019-04-12T03:30:54.290Z,10.23
2019-04-12T03:45:54.437Z,10.21
2019-04-12T04:00:57.161Z,10.29
2019-04-12T04:15:52.975Z,10.33
2019-04-12T04:45:53.871Z,10.69
2019-04-12T05:00:53.264Z,10.83
2019-04-12T05:15:50.907Z,11.55
2019-04-12T05:30:52.455Z,12.55
2019-04-12T05:45:55.106Z,14.50
2019-04-12T06:00:56.237Z,16.76
2019-04-12T06:15:51.559Z,18.88
2019-04-12T06:30:53.141Z,18.89
2019-04-12T06:45:54.457Z,16.58
2019-04-12T07:15:50.682Z,14.24
2019-04-12T07:30:56.528Z,15.07
2019-04-12T07:45:51.045Z,14.62
2019-04-12T08:00:58.866Z,13.67
2019-04-12T08:15:51.011Z,13.39
2019-04-12T08:30:56.835Z,13.06
2019-04-12T08:45:53.701Z,12.70
2019-04-12T09:00:53.708Z,12.82
2019-04-12T09:15:58.559Z,13.53
2019-04-12T09:30:51.066Z,13.57
2019-04-12T09:45:53.515Z,13.49
2019-04-12T10:00:53.922Z,13.27
2019-04-12T10:15:54.828Z,13.39
2019-04-12T10:30:51.270Z,13.01
2019-04-12T10:45:58.776Z,12.90
2019-04-12T11:00:52.716Z,13.29
2019-04-12T11:15:52.887Z,13.60
2019-04-12T11:30:54.334Z,13.71
2019-04-12T11:45:51.218Z,13.65
2019-04-12T12:00:52.813Z,14.10
2019-04-12T12:30:50.545Z,14.68
2019-04-12T12:45:50.472Z,14.54
2019-04-12T13:00:51.501Z,13.76
2019-04-12T13:15:51.382Z,13.17
2019-04-12T13:30:52.959Z,13.26
2019-04-12T13:45:57.360Z,13.12
2019-04-12T14:00:57.952Z,13.03
2019-04-12T14:15:52.979Z,13.56
2019-04-12T14:30:52.157Z,13.49
2019-04-12T15:01:09.044Z,13.05
2019-04-12T15:15:51.274Z,12.87
2019-04-12T15:30:58.113Z,12.74
2019-04-12T15:45:51.293Z,12.71
2019-04-12T16:00:55.656Z,12.54
2019-04-12T16:30:55.029Z,12.03
2019-04-12T16:45:50.715Z,11.91
2019-04-12T17:00:53.607Z,11.77
2019-04-12T17:15:50.282Z,11.65
2019-04-12T17:30:51.638Z,11.52
2019-04-12T17:45:49.997Z,11.43
2019-04-12T18:00:55.108Z,11.33
2019-04-12T18:15:49.892Z,11.30
2019-04-12T18:30:49.775Z,11.22
2019-04-12T18:45:53.716Z,11.21
2019-04-12T19:15:55.049Z,11.22
2019-04-12T19:30:52.199Z,11.23
2019-04-12T19:45:52.545Z,11.22
2019-04-12T20:00:50.702Z,11.19
2019-04-12T20:15:51.363Z,11.16
2019-04-12T20:30:51.317Z,11.09
2019-04-12T20:45:55.388Z,11.00
2019-04-12T21:00:50.925Z,10.95
2019-04-12T21:15:50.894Z,10.83
2019-04-12T21:30:50.437Z,10.83
2019-04-12T21:45:50.385Z,10.83
2019-04-12T22:00:55.313Z,10.86
2019-04-12T22:15:50.637Z,10.88
2019-04-12T22:30:52.269Z,10.83
2019-04-12T22:45:51.971Z,10.79
2019-04-12T23:00:51.419Z,10.70
2019-04-12T23:15:54.592Z,10.71
2019-04-12T23:45:50.821Z,10.64
